createdAt,value
2018-02-27T00:02:27.597Z,4.32
2018-02-27T00:04:55.990Z,3.50
2018-02-27T00:07:23.732Z,8.18
2018-02-27T00:09:51.380Z,4.30
2018-02-27T00:12:19.761Z,4.57
2018-02-27T00:14:47.438Z,3.60
2018-02-27T00:17:15.812Z,3.87
2018-02-27T00:19:44.184Z,3.90
2018-02-27T00:22:12.845Z,4.40
2018-02-27T00:24:40.460Z,5.43
2018-02-27T00:27:08.079Z,4.10
2018-02-27T00:29:36.508Z,5.13
2018-02-27T00:32:04.155Z,5.43
2018-02-27T00:34:31.810Z,4.30
2018-02-27T00:37:00.026Z,4.10
2018-02-27T00:39:27.682Z,4.73
2018-02-27T00:41:55.334Z,5.83
2018-02-27T00:44:22.945Z,5.50
2018-02-27T00:46:50.604Z,5.47
2018-02-27T00:49:18.253Z,5.60
2018-02-27T00:51:46.678Z,9.18
2018-02-27T00:54:14.293Z,7.57
2018-02-27T00:56:41.944Z,6.17
2018-02-27T00:59:09.677Z,9.67
2018-02-27T01:01:37.305Z,21.83
2018-02-27T01:04:05.114Z,20.60
2018-02-27T01:06:32.774Z,18.98
2018-02-27T01:09:00.421Z,13.37
2018-02-27T01:11:28.038Z,7.63
2018-02-27T01:13:55.697Z,52.40
2018-02-27T01:16:23.313Z,9.25
2018-02-27T01:18:50.979Z,20.50
2018-02-27T01:21:20.105Z,16.10
2018-02-27T01:23:48.490Z,29.25
2018-02-27T01:26:16.176Z,26.90
2018-02-27T01:28:43.794Z,29.27
2018-02-27T01:31:12.229Z,9.40
2018-02-27T01:33:39.849Z,16.20
2018-02-27T01:36:07.503Z,20.70
2018-02-27T01:38:35.122Z,10.53
2018-02-27T01:41:02.786Z,35.00
2018-02-27T01:43:30.408Z,28.07
2018-02-27T01:45:58.029Z,17.25
2018-02-27T01:48:26.774Z,12.67
2018-02-27T01:51:06.160Z,24.73
2018-02-27T01:53:34.590Z,14.50
2018-02-27T01:56:02.205Z,13.05
2018-02-27T01:58:29.870Z,12.93
2018-02-27T02:00:57.489Z,15.07
2018-02-27T02:03:25.145Z,15.82
2018-02-27T02:05:52.912Z,14.77
2018-02-27T02:08:21.525Z,14.30
2018-02-27T02:10:49.182Z,13.38
2018-02-27T02:13:17.616Z,14.83
2018-02-27T02:15:45.241Z,14.02
2018-02-27T02:18:12.858Z,13.40
2018-02-27T02:20:40.516Z,16.50
2018-02-27T02:23:08.133Z,12.00
2018-02-27T02:25:35.793Z,13.82
2018-02-27T02:28:03.419Z,13.87
2018-02-27T02:30:31.087Z,14.23
2018-02-27T02:32:58.705Z,15.43
2018-02-27T02:35:26.329Z,12.70
2018-02-27T02:37:54.017Z,11.67
2018-02-27T02:40:21.729Z,15.20
2018-02-27T02:42:50.109Z,11.77
2018-02-27T02:45:17.766Z,12.65
2018-02-27T02:47:45.421Z,13.60
2018-02-27T02:50:13.061Z,10.07
2018-02-27T02:52:40.954Z,11.00
2018-02-27T02:55:08.573Z,11.70
2018-02-27T02:57:36.954Z,10.02
2018-02-27T03:00:04.569Z,7.62
2018-02-27T03:02:32.221Z,10.50
2018-02-27T03:04:59.857Z,10.40
2018-02-27T03:07:28.217Z,9.20
2018-02-27T03:09:55.851Z,8.75
2018-02-27T03:12:28.448Z,9.43
2018-02-27T03:14:56.068Z,10.00
2018-02-27T03:17:23.722Z,11.53
2018-02-27T03:19:51.421Z,9.50
2018-02-27T03:22:19.073Z,7.97
2018-02-27T03:24:47.319Z,11.02
2018-02-27T03:27:15.013Z,8.80
2018-02-27T03:29:42.782Z,6.63
2018-02-27T03:32:10.401Z,9.63
2018-02-27T03:34:38.300Z,7.27
2018-02-27T03:37:06.464Z,8.70
2018-02-27T03:39:34.086Z,7.57
2018-02-27T03:42:01.713Z,8.17
2018-02-27T03:44:29.666Z,8.50
2018-02-27T03:46:57.316Z,9.40
2018-02-27T03:49:25.562Z,10.52
2018-02-27T03:51:53.777Z,8.60
2018-02-27T03:54:21.639Z,14.00
2018-02-27T03:56:49.262Z,8.47
2018-02-27T03:59:16.877Z,15.37
2018-02-27T04:01:46.925Z,6.27
2018-02-27T04:04:14.638Z,8.40
2018-02-27T04:06:42.289Z,7.00
2018-02-27T04:09:09.905Z,7.18
2018-02-27T04:11:37.565Z,8.30
2018-02-27T04:14:05.221Z,9.60
2018-02-27T04:16:32.833Z,7.87
2018-02-27T04:19:00.685Z,9.23
2018-02-27T04:21:28.447Z,7.33
2018-02-27T04:23:56.701Z,7.80
2018-02-27T04:26:24.341Z,6.30
2018-02-27T04:28:52.182Z,8.73
2018-02-27T04:31:19.839Z,7.63
2018-02-27T04:33:47.494Z,8.70
2018-02-27T04:36:15.728Z,7.80
2018-02-27T04:38:43.344Z,5.40
2018-02-27T04:41:11.782Z,6.30
2018-02-27T04:43:39.401Z,6.20
2018-02-27T04:46:07.057Z,6.28
2018-02-27T04:48:34.760Z,5.03
2018-02-27T04:51:02.380Z,4.33
2018-02-27T04:53:29.999Z,3.60
2018-02-27T04:55:57.717Z,4.55
2018-02-27T04:58:25.334Z,5.60
2018-02-27T05:00:52.998Z,4.23
2018-02-27T05:03:20.619Z,3.87
2018-02-27T05:05:48.277Z,5.35
2018-02-27T05:08:15.938Z,4.13
2018-02-27T05:10:43.598Z,3.70
2018-02-27T05:13:11.208Z,4.43
2018-02-27T05:15:38.921Z,3.72
2018-02-27T05:18:06.598Z,5.40
2018-02-27T05:20:34.549Z,3.20
2018-02-27T05:23:02.166Z,5.13
2018-02-27T05:25:31.416Z,4.50
2018-02-27T05:27:59.518Z,5.07
2018-02-27T05:30:28.515Z,4.65
2018-02-27T05:32:57.198Z,4.20
2018-02-27T05:35:25.573Z,6.20
2018-02-27T05:37:54.037Z,4.50
2018-02-27T05:40:21.773Z,8.10
2018-02-27T05:42:49.621Z,4.45
2018-02-27T05:45:17.247Z,5.15
2018-02-27T05:47:45.671Z,5.07
2018-02-27T05:50:13.468Z,4.40
2018-02-27T05:52:41.904Z,7.07
2018-02-27T05:55:10.371Z,7.97
2018-02-27T05:57:38.221Z,7.40
2018-02-27T06:00:06.079Z,7.85
2018-02-27T06:02:35.253Z,7.80
2018-02-27T06:05:02.927Z,13.00
2018-02-27T06:07:30.848Z,6.40
2018-02-27T06:09:58.460Z,4.28
2018-02-27T06:12:26.116Z,4.73
2018-02-27T06:14:53.777Z,4.55
2018-02-27T06:17:22.157Z,7.22
2018-02-27T06:19:50.910Z,4.90
2018-02-27T06:22:18.529Z,6.15
2018-02-27T06:24:49.373Z,4.75
2018-02-27T06:27:17.168Z,6.70
2018-02-27T06:29:44.786Z,4.32
2018-02-27T06:32:12.446Z,5.40
2018-02-27T06:34:40.066Z,4.18
2018-02-27T06:37:07.910Z,5.60
2018-02-27T06:39:35.530Z,4.53
2018-02-27T06:42:03.325Z,7.22
2018-02-27T06:44:30.941Z,5.63
2018-02-27T06:46:58.590Z,5.50
2018-02-27T06:49:26.465Z,9.10
2018-02-27T06:51:54.280Z,3.97
2018-02-27T06:54:21.942Z,6.20
2018-02-27T06:56:49.557Z,5.80
2018-02-27T06:59:17.169Z,5.07
2018-02-27T07:01:45.037Z,5.90
2018-02-27T07:04:12.648Z,5.93
2018-02-27T07:06:40.321Z,6.53
2018-02-27T07:09:07.973Z,8.63
2018-02-27T07:11:35.652Z,8.10
2018-02-27T07:14:04.089Z,5.03
2018-02-27T07:16:31.791Z,5.10
2018-02-27T07:18:59.453Z,5.55
2018-02-27T07:21:27.068Z,4.13
2018-02-27T07:23:54.737Z,3.90
2018-02-27T07:26:22.349Z,6.63
2018-02-27T07:28:50.210Z,4.30
2018-02-27T07:31:17.828Z,5.32
2018-02-27T07:33:46.965Z,3.90
2018-02-27T07:36:14.637Z,5.20
2018-02-27T07:38:42.299Z,3.90
2018-02-27T07:41:10.182Z,5.13
2018-02-27T07:43:38.108Z,3.70
2018-02-27T07:46:05.773Z,3.20
2018-02-27T07:48:33.386Z,3.33
2018-02-27T07:51:01.044Z,3.33
2018-02-27T07:53:29.285Z,4.07
2018-02-27T07:55:56.927Z,3.00
2018-02-27T07:58:24.546Z,4.03
2018-02-27T08:00:52.810Z,3.10
2018-02-27T08:03:20.700Z,3.03
2018-02-27T08:05:49.861Z,3.77
2018-02-27T08:08:17.474Z,4.40
2018-02-27T08:10:45.133Z,3.73
2018-02-27T08:13:12.796Z,3.50
2018-02-27T08:15:40.410Z,4.90
2018-02-27T08:18:08.081Z,5.63
2018-02-27T08:20:35.782Z,4.40
2018-02-27T08:23:03.430Z,3.50
2018-02-27T08:25:31.214Z,3.28
2018-02-27T08:27:58.857Z,5.18
2018-02-27T08:30:26.469Z,3.87
2018-02-27T08:32:54.901Z,3.12
2018-02-27T08:35:22.663Z,3.83
2018-02-27T08:37:50.334Z,3.13
2018-02-27T08:40:17.957Z,2.80
2018-02-27T08:42:45.573Z,3.30
2018-02-27T08:45:13.230Z,3.40
2018-02-27T08:47:40.841Z,8.50
2018-02-27T08:50:09.068Z,2.80
2018-02-27T08:52:38.188Z,2.20
2018-02-27T08:55:05.838Z,2.87
2018-02-27T08:57:33.499Z,3.83
2018-02-27T09:00:01.516Z,3.20
2018-02-27T09:02:29.134Z,3.20
2018-02-27T09:04:56.790Z,2.80
2018-02-27T09:07:24.437Z,4.20
2018-02-27T09:09:52.833Z,6.00
2018-02-27T09:12:21.253Z,4.57
2018-02-27T09:14:48.961Z,3.50
2018-02-27T09:17:16.714Z,3.43
2018-02-27T09:19:44.449Z,2.47
2018-02-27T09:22:12.558Z,5.17
2018-02-27T09:24:40.982Z,3.83
2018-02-27T09:27:08.589Z,2.53
2018-02-27T09:29:36.431Z,3.20
2018-02-27T09:32:04.890Z,2.30
2018-02-27T09:34:32.874Z,2.67
2018-02-27T09:37:00.633Z,3.20
2018-02-27T09:39:28.854Z,2.83
2018-02-27T09:41:56.500Z,2.30
2018-02-27T09:44:25.516Z,2.62
2018-02-27T09:46:53.141Z,2.90
2018-02-27T09:49:20.760Z,2.70
2018-02-27T09:51:48.423Z,2.00
2018-02-27T09:54:16.081Z,3.10
2018-02-27T09:56:43.753Z,3.40
2018-02-27T09:59:11.425Z,2.33
2018-02-27T10:01:39.073Z,3.60
2018-02-27T10:04:06.729Z,2.50
2018-02-27T10:06:34.384Z,2.93
2018-02-27T10:09:02.488Z,2.90
2018-02-27T10:11:30.146Z,3.40
2018-02-27T10:13:58.078Z,2.60
2018-02-27T10:16:25.728Z,3.03
2018-02-27T10:18:54.054Z,2.67
2018-02-27T10:21:23.442Z,2.77
2018-02-27T10:23:51.115Z,2.97
2018-02-27T10:26:18.746Z,2.10
2018-02-27T10:28:46.646Z,2.15
2018-02-27T10:31:14.505Z,3.97
2018-02-27T10:33:42.255Z,2.42
2018-02-27T10:36:10.103Z,2.50
2018-02-27T10:38:37.734Z,1.65
2018-02-27T10:41:05.382Z,2.33
2018-02-27T10:43:33.014Z,1.77
2018-02-27T10:46:00.641Z,3.45
2018-02-27T10:48:28.296Z,1.53
2018-02-27T10:50:55.946Z,1.60
2018-02-27T10:53:23.597Z,3.60
2018-02-27T10:55:51.209Z,3.07
2018-02-27T10:58:18.869Z,3.90
2018-02-27T11:00:51.286Z,2.40
2018-02-27T11:03:19.182Z,2.13
2018-02-27T11:05:47.384Z,2.07
2018-02-27T11:08:15.043Z,2.57
2018-02-27T11:10:42.656Z,5.70
2018-02-27T11:13:10.304Z,2.60
2018-02-27T11:15:37.922Z,2.50
2018-02-27T11:18:06.164Z,3.60
2018-02-27T11:20:33.778Z,3.95
2018-02-27T11:23:03.057Z,3.30
2018-02-27T11:25:30.717Z,1.55
2018-02-27T11:27:58.342Z,2.97
2018-02-27T11:30:25.992Z,2.50
2018-02-27T11:32:53.789Z,2.40
2018-02-27T11:35:23.172Z,1.93
2018-02-27T11:37:51.242Z,1.77
2018-02-27T11:40:18.917Z,2.90
2018-02-27T11:42:46.673Z,2.35
2018-02-27T11:45:14.322Z,4.10
2018-02-27T11:47:45.576Z,4.10
2018-02-27T11:50:14.297Z,2.60
2018-02-27T11:52:44.401Z,2.33
2018-02-27T11:55:12.009Z,2.63
2018-02-27T11:57:40.848Z,1.67
2018-02-27T12:00:10.940Z,4.35
2018-02-27T12:02:38.594Z,2.08
2018-02-27T12:05:06.214Z,2.03
2018-02-27T12:07:34.638Z,2.40
2018-02-27T12:10:02.246Z,2.20
2018-02-27T12:12:29.903Z,1.90
2018-02-27T12:14:57.545Z,1.95
2018-02-27T12:17:25.288Z,1.87
2018-02-27T12:19:52.910Z,2.23
2018-02-27T12:22:20.569Z,2.47
2018-02-27T12:24:50.403Z,2.30
2018-02-27T12:27:18.173Z,1.65
2018-02-27T12:29:45.795Z,1.98
2018-02-27T12:32:13.445Z,3.47
2018-02-27T12:34:41.822Z,2.20
2018-02-27T12:37:10.238Z,2.80
2018-02-27T12:39:37.853Z,1.60
2018-02-27T12:42:05.505Z,1.50
2018-02-27T12:44:33.224Z,1.80
2018-02-27T12:47:01.222Z,1.97
2018-02-27T12:49:28.876Z,2.07
2018-02-27T12:51:56.499Z,2.28
2018-02-27T12:54:24.185Z,2.27
2018-02-27T12:56:52.112Z,2.17
2018-02-27T12:59:20.677Z,1.98
2018-02-27T13:01:49.094Z,1.77
2018-02-27T13:04:16.863Z,1.73
2018-02-27T13:06:44.508Z,2.10
2018-02-27T13:09:12.301Z,2.70
2018-02-27T13:11:40.131Z,1.73
2018-02-27T13:14:07.755Z,2.43
2018-02-27T13:16:37.274Z,5.70
2018-02-27T13:19:05.978Z,3.80
2018-02-27T13:21:33.641Z,3.97
2018-02-27T13:24:01.266Z,6.73
2018-02-27T13:26:28.929Z,2.57
2018-02-27T13:28:56.549Z,2.97
2018-02-27T13:31:24.318Z,2.43
2018-02-27T13:33:51.984Z,3.33
2018-02-27T13:36:19.641Z,2.55
2018-02-27T13:38:47.547Z,4.17
2018-02-27T13:41:15.949Z,5.30
2018-02-27T13:43:43.614Z,5.30
2018-02-27T13:46:11.522Z,2.37
2018-02-27T13:48:45.760Z,2.50
2018-02-27T13:51:07.613Z,5.63
2018-02-27T13:53:35.287Z,4.20
2018-02-27T13:56:03.212Z,3.43
2018-02-27T13:58:32.193Z,3.35
2018-02-27T14:01:00.630Z,3.00
2018-02-27T14:03:28.276Z,2.73
2018-02-27T14:05:55.892Z,5.00
2018-02-27T14:08:23.541Z,3.83
2018-02-27T14:10:51.293Z,3.00
2018-02-27T14:13:18.954Z,2.90
2018-02-27T14:15:46.605Z,4.10
2018-02-27T14:18:14.259Z,3.20
2018-02-27T14:20:41.931Z,4.18
2018-02-27T14:23:09.573Z,3.83
2018-02-27T14:25:37.905Z,3.40
2018-02-27T14:28:06.294Z,3.47
2018-02-27T14:30:34.092Z,4.03
2018-02-27T14:33:01.777Z,3.97
2018-02-27T14:35:29.513Z,3.95
2018-02-27T14:37:57.165Z,3.40
2018-02-27T14:40:24.784Z,3.30
2018-02-27T14:42:53.208Z,4.65
2018-02-27T14:45:21.200Z,4.07
2018-02-27T14:47:48.847Z,4.25
2018-02-27T14:50:17.102Z,8.44
2018-02-27T14:52:44.759Z,4.40
2018-02-27T14:55:12.518Z,5.07
2018-02-27T14:57:40.177Z,3.93
2018-02-27T15:00:07.846Z,3.57
2018-02-27T15:02:35.602Z,2.60
2018-02-27T15:05:03.217Z,2.33
2018-02-27T15:07:31.636Z,2.93
2018-02-27T15:09:59.357Z,2.60
2018-02-27T15:12:30.171Z,3.47
2018-02-27T15:14:57.807Z,2.40
2018-02-27T15:17:25.461Z,2.07
2018-02-27T15:19:53.080Z,2.37
2018-02-27T15:22:21.439Z,1.40
2018-02-27T15:24:49.085Z,3.55
2018-02-27T15:27:16.922Z,2.10
2018-02-27T15:29:44.538Z,4.23
2018-02-27T15:32:12.155Z,3.05
2018-02-27T15:34:39.841Z,2.83
2018-02-27T15:37:07.682Z,2.10
2018-02-27T15:39:35.337Z,2.63
2018-02-27T15:42:03.662Z,2.70
2018-02-27T15:44:31.771Z,2.30
2018-02-27T15:47:00.218Z,2.40
2018-02-27T15:49:28.865Z,1.80
2018-02-27T15:51:56.487Z,3.03
2018-02-27T15:54:24.529Z,2.80
2018-02-27T15:56:53.073Z,2.30
2018-02-27T15:59:20.728Z,2.67
2018-02-27T16:01:48.346Z,3.30
2018-02-27T16:04:15.995Z,2.97
2018-02-27T16:06:43.651Z,2.87
2018-02-27T16:09:11.361Z,5.80
2018-02-27T16:11:39.013Z,3.33
2018-02-27T16:14:11.013Z,3.20
2018-02-27T16:16:39.565Z,2.47
2018-02-27T16:19:07.178Z,2.97
2018-02-27T16:21:34.858Z,4.83
2018-02-27T16:24:02.529Z,5.00
2018-02-27T16:26:30.744Z,4.03
2018-02-27T16:28:58.396Z,4.40
2018-02-27T16:31:26.053Z,4.13
2018-02-27T16:33:53.705Z,5.67
2018-02-27T16:36:21.322Z,5.22
2018-02-27T16:38:48.997Z,5.50
2018-02-27T16:41:16.686Z,10.53
2018-02-27T16:43:44.834Z,7.43
2018-02-27T16:46:12.992Z,8.52
2018-02-27T16:48:40.614Z,7.95
2018-02-27T16:51:08.952Z,3.13
2018-02-27T16:53:36.610Z,5.35
2018-02-27T16:56:04.282Z,7.75
2018-02-27T16:58:31.972Z,8.90
2018-02-27T17:00:59.657Z,10.65
2018-02-27T17:03:27.905Z,10.90
2018-02-27T17:05:55.753Z,7.67
2018-02-27T17:08:24.014Z,15.33
2018-02-27T17:10:51.677Z,10.80
2018-02-27T17:13:19.957Z,9.45
2018-02-27T17:15:47.570Z,6.97
2018-02-27T17:18:15.229Z,6.30
2018-02-27T17:20:42.847Z,7.75
2018-02-27T17:23:10.510Z,7.20
2018-02-27T17:25:38.167Z,6.90
2018-02-27T17:28:05.814Z,8.30
2018-02-27T17:30:33.479Z,9.00
2018-02-27T17:33:01.086Z,7.43
2018-02-27T17:35:29.465Z,10.33
2018-02-27T17:37:58.117Z,8.57
2018-02-27T17:40:25.874Z,5.60
2018-02-27T17:42:54.094Z,8.20
2018-02-27T17:45:21.755Z,9.63
2018-02-27T17:47:49.370Z,8.00
2018-02-27T17:50:17.028Z,8.08
2018-02-27T17:52:44.925Z,11.60
2018-02-27T17:55:12.578Z,11.40
2018-02-27T17:57:40.201Z,10.07
2018-02-27T18:00:07.852Z,7.93
2018-02-27T18:02:35.519Z,9.57
2018-02-27T18:05:03.185Z,10.90
2018-02-27T18:07:30.805Z,10.33
2018-02-27T18:09:58.465Z,8.87
2018-02-27T18:12:26.078Z,9.20
2018-02-27T18:14:53.693Z,9.60
2018-02-27T18:17:21.353Z,13.20
2018-02-27T18:19:48.978Z,10.63
2018-02-27T18:22:16.668Z,12.53
2018-02-27T18:24:44.289Z,15.40
2018-02-27T18:27:11.938Z,6.47
2018-02-27T18:29:39.583Z,11.73
2018-02-27T18:32:07.239Z,8.57
2018-02-27T18:34:35.457Z,10.60
2018-02-27T18:37:03.109Z,9.07
2018-02-27T18:39:31.538Z,7.20
2018-02-27T18:41:59.165Z,10.97
2018-02-27T18:44:26.829Z,13.97
2018-02-27T18:46:55.208Z,9.23
2018-02-27T18:49:22.894Z,8.75
2018-02-27T18:51:50.554Z,9.53
2018-02-27T18:54:18.234Z,11.23
2018-02-27T18:56:45.865Z,9.10
2018-02-27T18:59:13.521Z,15.98
2018-02-27T19:01:41.150Z,8.75
2018-02-27T19:04:08.837Z,13.55
2018-02-27T19:06:36.839Z,8.57
2018-02-27T19:09:04.461Z,15.23
2018-02-27T19:11:32.155Z,15.35
2018-02-27T19:13:59.837Z,11.90
2018-02-27T19:16:27.486Z,9.43
2018-02-27T19:18:55.109Z,7.85
2018-02-27T19:21:22.777Z,14.03
2018-02-27T19:23:50.394Z,11.17
2018-02-27T19:26:18.135Z,14.30
2018-02-27T19:28:46.460Z,21.90
2018-02-27T19:31:14.137Z,18.30
2018-02-27T19:33:41.962Z,9.27
2018-02-27T19:36:10.350Z,14.27
2018-02-27T19:38:38.781Z,11.48
2018-02-27T19:41:06.392Z,9.30
2018-02-27T19:43:34.830Z,16.60
2018-02-27T19:46:02.444Z,12.50
2018-02-27T19:48:30.991Z,12.73
2018-02-27T19:50:59.435Z,7.43
2018-02-27T19:53:27.102Z,11.83
2018-02-27T19:55:54.771Z,12.52
2018-02-27T19:58:22.421Z,12.83
2018-02-27T20:00:50.579Z,11.12
2018-02-27T20:03:18.226Z,9.90
2018-02-27T20:05:45.877Z,8.50
2018-02-27T20:08:13.630Z,14.02
2018-02-27T20:10:41.639Z,7.68
2018-02-27T20:13:09.415Z,18.93
2018-02-27T20:15:37.167Z,20.53
2018-02-27T20:18:11.453Z,5.72
2018-02-27T20:20:39.346Z,12.75
2018-02-27T20:23:12.892Z,9.90
2018-02-27T20:25:41.057Z,9.87
2018-02-27T20:28:15.903Z,13.33
2018-02-27T20:30:43.583Z,13.93
2018-02-27T20:33:11.401Z,18.13
2018-02-27T20:35:39.240Z,10.93
2018-02-27T20:38:07.905Z,13.70
2018-02-27T20:40:35.762Z,11.07
2018-02-27T20:43:03.750Z,8.00
2018-02-27T20:45:32.733Z,9.88
2018-02-27T20:48:00.355Z,9.38
2018-02-27T20:50:29.095Z,9.65
2018-02-27T20:52:57.701Z,9.93
2018-02-27T20:55:25.358Z,6.62
2018-02-27T20:57:53.521Z,7.25
2018-02-27T21:00:21.686Z,5.00
2018-02-27T21:02:49.459Z,11.87
2018-02-27T21:05:17.413Z,8.32
2018-02-27T21:07:45.244Z,7.67
2018-02-27T21:10:12.889Z,6.43
2018-02-27T21:12:40.817Z,6.60
2018-02-27T21:15:08.458Z,10.30
2018-02-27T21:17:36.129Z,13.90
2018-02-27T21:20:03.745Z,7.68
2018-02-27T21:22:31.430Z,6.00
2018-02-27T21:24:59.100Z,8.48
2018-02-27T21:27:26.708Z,6.17
2018-02-27T21:29:54.374Z,5.90
2018-02-27T21:32:22.762Z,5.77
2018-02-27T21:34:50.478Z,6.47
2018-02-27T21:37:18.133Z,4.70
2018-02-27T21:39:45.750Z,9.68
2018-02-27T21:42:13.404Z,6.20
2018-02-27T21:44:41.029Z,10.13
2018-02-27T21:47:08.713Z,6.07
2018-02-27T21:49:37.129Z,8.48
2018-02-27T21:52:04.742Z,9.40
2018-02-27T21:54:32.398Z,10.23
2018-02-27T21:57:00.067Z,6.77
2018-02-27T21:59:28.459Z,4.70
2018-02-27T22:01:57.149Z,8.20
2018-02-27T22:04:28.589Z,5.62
2018-02-27T22:06:56.205Z,5.97
2018-02-27T22:09:23.921Z,4.60
2018-02-27T22:11:52.183Z,6.60
2018-02-27T22:14:20.602Z,8.20
2018-02-27T22:16:48.710Z,5.67
2018-02-27T22:19:16.369Z,5.30
2018-02-27T22:21:44.041Z,6.20
2018-02-27T22:24:11.669Z,5.73
2018-02-27T22:26:39.319Z,6.03
2018-02-27T22:29:06.973Z,9.60
2018-02-27T22:31:34.634Z,5.00
2018-02-27T22:34:02.249Z,5.82
2018-02-27T22:36:29.910Z,10.30
2018-02-27T22:38:58.232Z,6.35
2018-02-27T22:41:25.841Z,6.50
2018-02-27T22:43:53.494Z,5.57
2018-02-27T22:46:21.150Z,6.43
2018-02-27T22:48:49.529Z,4.90
2018-02-27T22:51:18.870Z,5.30
2018-02-27T22:53:46.486Z,13.52
2018-02-27T22:56:14.150Z,13.95
2018-02-27T22:58:41.819Z,17.15
2018-02-27T23:01:10.206Z,14.00
2018-02-27T23:03:37.926Z,13.93
2018-02-27T23:06:05.586Z,10.02
2018-02-27T23:08:33.207Z,13.20
2018-02-27T23:11:00.873Z,9.55
2018-02-27T23:13:28.547Z,7.70
2018-02-27T23:15:56.824Z,7.40
2018-02-27T23:18:24.484Z,10.40
2018-02-27T23:20:52.102Z,7.43
2018-02-27T23:23:19.761Z,5.60
2018-02-27T23:25:57.434Z,4.30
2018-02-27T23:28:27.052Z,5.75
2018-02-27T23:30:55.742Z,5.53
2018-02-27T23:33:27.022Z,5.40
2018-02-27T23:35:54.677Z,5.53
2018-02-27T23:38:22.297Z,4.97
2018-02-27T23:40:50.715Z,6.20
2018-02-27T23:43:18.382Z,7.93
2018-02-27T23:45:46.222Z,4.73
2018-02-27T23:48:13.873Z,4.10
2018-02-27T23:50:42.128Z,6.20
2018-02-27T23:53:09.782Z,4.60
2018-02-27T23:55:38.065Z,6.17
2018-02-27T23:58:05.717Z,6.10
